createdAt,value
2023-05-20T00:00:13.393Z,1561.37
2023-05-20T00:01:13.371Z,1561.13
2023-05-20T00:02:13.540Z,1561.37
2023-05-20T00:03:13.832Z,1561.18
2023-05-20T00:04:13.391Z,1561.24
2023-05-20T00:05:13.425Z,1561.07
2023-05-20T00:06:13.198Z,1561.01
2023-05-20T00:07:13.098Z,1561.38
2023-05-20T00:08:13.127Z,1561.19
2023-05-20T00:09:12.980Z,1561.32
2023-05-20T00:10:12.984Z,1561.34
2023-05-20T00:11:12.728Z,1561.44
2023-05-20T00:12:13.497Z,1561.41
2023-05-20T00:13:13.690Z,1561.25
2023-05-20T00:14:13.487Z,1561.14
2023-05-20T00:15:13.309Z,1561.08
2023-05-20T00:16:13.333Z,1560.96
2023-05-20T00:17:13.230Z,1561.35
2023-05-20T00:18:13.048Z,1561.07
2023-05-20T00:19:13.072Z,1561.13
2023-05-20T00:20:13.074Z,1561.38
2023-05-20T00:21:12.849Z,1561.60
2023-05-20T00:22:12.640Z,1561.64
2023-05-20T00:23:13.630Z,1561.28
2023-05-20T00:24:13.375Z,1560.99
2023-05-20T00:25:13.471Z,1561.05
2023-05-20T00:26:13.356Z,1560.93
2023-05-20T00:27:13.199Z,1561.00
2023-05-20T00:28:12.989Z,1561.35
2023-05-20T00:29:12.854Z,1561.00
2023-05-20T00:30:13.790Z,1560.99
2023-05-20T00:31:12.598Z,1560.62
2023-05-20T00:32:13.464Z,1560.51
2023-05-20T00:33:13.381Z,1561.05
2023-05-20T00:34:13.416Z,1560.82
2023-05-20T00:35:13.309Z,1560.49
2023-05-20T00:36:13.434Z,1560.46
2023-05-20T00:37:13.488Z,1560.42
2023-05-20T00:38:13.252Z,1560.51
2023-05-20T00:39:13.382Z,1560.39
2023-05-20T00:40:15.503Z,1560.44
2023-05-20T00:41:13.533Z,1560.58
2023-05-20T00:42:13.810Z,1560.36
2023-05-20T00:43:13.612Z,1560.28
2023-05-20T00:44:13.400Z,1560.32
2023-05-20T00:45:13.245Z,1560.28
2023-05-20T00:46:13.374Z,1560.19
2023-05-20T00:47:13.265Z,1560.33
2023-05-20T00:48:13.106Z,1560.23
2023-05-20T00:49:13.066Z,1559.97
2023-05-20T00:50:13.068Z,1559.99
2023-05-20T00:51:12.938Z,1559.85
2023-05-20T00:52:12.869Z,1559.77
2023-05-20T00:53:13.819Z,1559.69
2023-05-20T00:54:12.846Z,1559.51
2023-05-20T00:55:13.662Z,1559.54
2023-05-20T00:56:13.839Z,1559.55
2023-05-20T00:57:12.786Z,1559.65
2023-05-20T00:58:13.501Z,1559.50
2023-05-20T00:59:13.282Z,1559.34
2023-05-20T01:00:13.140Z,1559.23
2023-05-20T01:01:12.908Z,1558.96
2023-05-20T01:02:12.740Z,1558.91
2023-05-20T01:03:13.775Z,1558.80
2023-05-20T01:04:13.553Z,1558.93
2023-05-20T01:05:13.447Z,1559.02
2023-05-20T01:06:13.452Z,1558.80
2023-05-20T01:07:13.280Z,1558.67
2023-05-20T01:08:13.033Z,1558.42
2023-05-20T01:09:13.187Z,1558.28
2023-05-20T01:10:12.937Z,1558.27
2023-05-20T01:11:12.652Z,1558.30
2023-05-20T01:12:13.465Z,1558.16
2023-05-20T01:13:13.572Z,1558.13
2023-05-20T01:14:13.505Z,1558.75
2023-05-20T01:15:13.434Z,1558.62
2023-05-20T01:16:13.647Z,1558.88
2023-05-20T01:17:13.525Z,1558.78
2023-05-20T01:18:13.433Z,1558.76
2023-05-20T01:19:13.190Z,1558.52
2023-05-20T01:20:13.147Z,1558.88
2023-05-20T01:21:12.909Z,1558.27
2023-05-20T01:22:12.713Z,1558.42
2023-05-20T01:23:13.513Z,1558.56
2023-05-20T01:24:13.606Z,1557.95
2023-05-20T01:25:13.408Z,1558.35
2023-05-20T01:26:13.250Z,1558.48
2023-05-20T01:27:13.280Z,1558.07
2023-05-20T01:28:13.258Z,1558.07
2023-05-20T01:29:13.267Z,1558.50
2023-05-20T01:30:13.125Z,1558.35
2023-05-20T01:31:12.945Z,1558.66
2023-05-20T01:32:12.774Z,1558.73
2023-05-20T01:33:13.720Z,1558.78
2023-05-20T01:34:13.855Z,1559.08
2023-05-20T01:35:13.890Z,1559.23
2023-05-20T01:36:12.713Z,1559.05
2023-05-20T01:37:13.527Z,1558.44
2023-05-20T01:38:13.475Z,1558.70
2023-05-20T01:39:13.241Z,1558.53
2023-05-20T01:40:13.049Z,1557.90
2023-05-20T01:41:12.804Z,1558.08
2023-05-20T01:42:13.636Z,1557.97
2023-05-20T01:43:15.156Z,1558.37
2023-05-20T01:44:12.684Z,1557.86
2023-05-20T01:45:13.435Z,1558.25
2023-05-20T01:46:15.019Z,1557.93
2023-05-20T01:47:12.904Z,1557.44
2023-05-20T01:48:12.838Z,1557.83
2023-05-20T01:49:13.639Z,1557.69
2023-05-20T01:50:13.398Z,1557.67
2023-05-20T01:51:13.232Z,1557.37
2023-05-20T01:52:13.101Z,1557.45
2023-05-20T01:53:13.099Z,1557.58
2023-05-20T01:54:12.802Z,1557.53
2023-05-20T01:55:13.653Z,1557.89
2023-05-20T01:56:13.487Z,1558.08
2023-05-20T01:57:13.252Z,1557.82
2023-05-20T01:58:13.099Z,1557.72
2023-05-20T01:59:12.929Z,1557.74
2023-05-20T02:00:12.944Z,1557.50
2023-05-20T02:01:12.769Z,1557.41
2023-05-20T02:02:13.617Z,1557.66
2023-05-20T02:03:13.739Z,1557.94
2023-05-20T02:04:13.594Z,1558.06
2023-05-20T02:05:13.477Z,1557.92
2023-05-20T02:06:13.537Z,1557.69
2023-05-20T02:07:13.432Z,1557.50
2023-05-20T02:08:13.209Z,1557.30
2023-05-20T02:09:12.968Z,1557.53
2023-05-20T02:10:17.835Z,1557.35
2023-05-20T02:11:13.604Z,1557.32
2023-05-20T02:12:13.612Z,1557.61
2023-05-20T02:13:13.488Z,1557.40
2023-05-20T02:14:13.585Z,1557.11
2023-05-20T02:15:13.316Z,1557.72
2023-05-20T02:16:13.140Z,1557.36
2023-05-20T02:17:12.962Z,1557.66
2023-05-20T02:18:12.836Z,1557.62
2023-05-20T02:19:13.259Z,1557.97
2023-05-20T02:20:13.372Z,1557.38
2023-05-20T02:21:13.214Z,1557.61
2023-05-20T02:22:13.173Z,1557.31
2023-05-20T02:23:12.925Z,1556.83
2023-05-20T02:24:12.873Z,1557.26
2023-05-20T02:25:12.928Z,1556.89
2023-05-20T02:26:12.808Z,1557.11
2023-05-20T02:27:13.539Z,1557.44
2023-05-20T02:28:13.281Z,1557.19
2023-05-20T02:29:13.103Z,1557.01
2023-05-20T02:30:13.030Z,1556.95
2023-05-20T02:31:12.739Z,1557.03
2023-05-20T02:32:13.664Z,1557.08
2023-05-20T02:33:13.549Z,1556.85
2023-05-20T02:34:13.354Z,1556.83
2023-05-20T02:35:13.180Z,1556.74
2023-05-20T02:36:13.256Z,1556.84
2023-05-20T02:37:13.153Z,1557.01
2023-05-20T02:38:13.105Z,1556.77
2023-05-20T02:39:12.894Z,1557.07
2023-05-20T02:40:12.715Z,1556.82
2023-05-20T02:41:13.591Z,1556.85
2023-05-20T02:42:13.346Z,1556.91
2023-05-20T02:43:13.043Z,1556.67
2023-05-20T02:44:13.161Z,1556.43
2023-05-20T02:45:12.873Z,1556.83
2023-05-20T02:46:13.902Z,1556.49
2023-05-20T02:47:12.704Z,1556.55
2023-05-20T02:48:13.471Z,1556.45
2023-05-20T02:49:13.616Z,1556.54
2023-05-20T02:50:13.452Z,1556.63
2023-05-20T02:51:13.577Z,1556.53
2023-05-20T02:52:13.527Z,1556.27
2023-05-20T02:53:13.345Z,1556.31
2023-05-20T02:54:13.161Z,1556.27
2023-05-20T02:55:13.223Z,1556.10
2023-05-20T02:56:13.013Z,1555.99
2023-05-20T02:57:12.832Z,1556.15
2023-05-20T02:58:13.679Z,1556.28
2023-05-20T02:59:13.470Z,1556.07
2023-05-20T03:00:13.555Z,1556.18
2023-05-20T03:01:13.563Z,1556.05
2023-05-20T03:02:13.480Z,1556.08
2023-05-20T03:03:13.210Z,1555.99
2023-05-20T03:04:13.139Z,1555.96
2023-05-20T03:05:13.006Z,1555.82
2023-05-20T03:06:12.759Z,1555.89
2023-05-20T03:07:13.572Z,1556.09
2023-05-20T03:08:13.441Z,1555.99
2023-05-20T03:09:13.349Z,1555.93
2023-05-20T03:10:13.164Z,1555.70
2023-05-20T03:11:12.888Z,1556.02
2023-05-20T03:12:12.706Z,1555.73
2023-05-20T03:13:13.627Z,1555.83
2023-05-20T03:14:13.411Z,1555.60
2023-05-20T03:15:13.399Z,1555.62
2023-05-20T03:16:15.541Z,1555.90
2023-05-20T03:17:13.647Z,1555.97
2023-05-20T03:18:13.525Z,1556.14
2023-05-20T03:19:13.385Z,1555.76
2023-05-20T03:20:13.447Z,1555.93
2023-05-20T03:21:13.260Z,1555.85
2023-05-20T03:22:13.460Z,1555.84
2023-05-20T03:23:13.343Z,1555.78
2023-05-20T03:24:13.447Z,1556.01
2023-05-20T03:25:13.327Z,1555.73
2023-05-20T03:26:13.384Z,1555.56
2023-05-20T03:27:13.415Z,1555.82
2023-05-20T03:28:13.406Z,1555.82
2023-05-20T03:29:13.297Z,1555.57
2023-05-20T03:30:13.052Z,1555.77
2023-05-20T03:31:12.935Z,1555.94
2023-05-20T03:32:12.681Z,1555.64
2023-05-20T03:33:13.666Z,1555.81
2023-05-20T03:34:13.546Z,1556.00
2023-05-20T03:35:13.383Z,1555.73
2023-05-20T03:36:13.340Z,1555.84
2023-05-20T03:37:13.314Z,1555.78
2023-05-20T03:38:13.434Z,1555.84
2023-05-20T03:39:13.248Z,1555.69
2023-05-20T03:40:13.042Z,1555.78
2023-05-20T03:41:12.848Z,1555.77
2023-05-20T03:42:13.849Z,1555.50
2023-05-20T03:43:13.612Z,1555.80
2023-05-20T03:44:13.558Z,1556.29
2023-05-20T03:45:13.396Z,1556.05
2023-05-20T03:46:13.202Z,1555.92
2023-05-20T03:47:13.234Z,1555.74
2023-05-20T03:48:13.034Z,1555.91
2023-05-20T03:49:13.175Z,1555.84
2023-05-20T03:50:12.922Z,1555.71
2023-05-20T03:51:12.721Z,1555.92
2023-05-20T03:52:13.602Z,1555.82
2023-05-20T03:53:13.374Z,1556.14
2023-05-20T03:54:13.189Z,1556.34
2023-05-20T03:55:13.035Z,1556.58
2023-05-20T03:56:12.952Z,1556.80
2023-05-20T03:57:12.750Z,1556.56
2023-05-20T03:58:13.780Z,1556.89
2023-05-20T03:59:13.532Z,1556.63
2023-05-20T04:00:13.341Z,1556.84
2023-05-20T04:01:13.142Z,1557.36
2023-05-20T04:02:13.104Z,1557.04
2023-05-20T04:03:13.014Z,1557.23
2023-05-20T04:04:13.321Z,1557.18
2023-05-20T04:05:13.267Z,1557.13
2023-05-20T04:06:13.104Z,1557.39
2023-05-20T04:07:13.341Z,1557.77
2023-05-20T04:08:13.117Z,1557.14
2023-05-20T04:09:13.269Z,1557.35
2023-05-20T04:10:13.172Z,1557.60
2023-05-20T04:11:13.089Z,1557.67
2023-05-20T04:12:13.170Z,1557.77
2023-05-20T04:13:13.014Z,1557.86
2023-05-20T04:14:12.843Z,1557.38
2023-05-20T04:15:13.678Z,1557.43
2023-05-20T04:16:13.476Z,1557.31
2023-05-20T04:17:13.428Z,1557.40
2023-05-20T04:18:13.343Z,1557.41
2023-05-20T04:19:13.180Z,1557.96
2023-05-20T04:20:13.006Z,1557.29
2023-05-20T04:21:12.937Z,1557.91
2023-05-20T04:22:12.888Z,1558.03
2023-05-20T04:23:12.775Z,1557.26
2023-05-20T04:24:13.856Z,1557.70
2023-05-20T04:25:12.938Z,1557.63
2023-05-20T04:26:12.677Z,1557.71
2023-05-20T04:27:13.554Z,1558.00
2023-05-20T04:28:13.454Z,1558.43
2023-05-20T04:29:13.570Z,1558.37
2023-05-20T04:30:13.431Z,1557.97
2023-05-20T04:31:13.512Z,1558.10
2023-05-20T04:32:13.630Z,1557.91
2023-05-20T04:33:13.599Z,1558.18
2023-05-20T04:34:13.593Z,1558.56
2023-05-20T04:35:13.416Z,1558.21
2023-05-20T04:36:13.174Z,1557.92
2023-05-20T04:37:13.387Z,1557.68
2023-05-20T04:38:13.228Z,1557.59
2023-05-20T04:39:13.056Z,1557.90
2023-05-20T04:40:12.877Z,1558.26
2023-05-20T04:41:13.705Z,1558.08
2023-05-20T04:42:13.515Z,1558.42
2023-05-20T04:43:13.292Z,1558.43
2023-05-20T04:44:13.074Z,1558.49
2023-05-20T04:45:12.892Z,1558.44
2023-05-20T04:46:12.899Z,1558.79
2023-05-20T04:47:12.920Z,1558.42
2023-05-20T04:48:12.715Z,1558.40
2023-05-20T04:49:13.890Z,1558.98
2023-05-20T04:50:12.744Z,1558.69
2023-05-20T04:51:13.598Z,1559.20
2023-05-20T04:52:18.451Z,1558.04
2023-05-20T04:53:13.288Z,1558.17
2023-05-20T04:54:13.059Z,1558.44
2023-05-20T04:55:12.907Z,1558.29
2023-05-20T04:56:12.762Z,1558.90
2023-05-20T04:57:15.701Z,1558.96
2023-05-20T04:58:13.579Z,1558.87
2023-05-20T04:59:13.362Z,1558.71
2023-05-20T05:00:13.147Z,1559.14
2023-05-20T05:01:13.241Z,1559.38
2023-05-20T05:02:13.135Z,1559.63
2023-05-20T05:03:13.414Z,1559.25
2023-05-20T05:04:13.344Z,1560.11
2023-05-20T05:05:13.197Z,1559.80
2023-05-20T05:06:13.067Z,1559.64
2023-05-20T05:07:12.926Z,1559.57
2023-05-20T05:08:12.717Z,1559.35
2023-05-20T05:09:13.482Z,1559.78
2023-05-20T05:10:13.265Z,1559.92
2023-05-20T05:11:13.080Z,1560.19
2023-05-20T05:12:12.795Z,1560.12
2023-05-20T05:13:13.909Z,1560.03
2023-05-20T05:14:12.814Z,1559.40
2023-05-20T05:15:13.735Z,1559.16
2023-05-20T05:16:13.565Z,1558.64
2023-05-20T05:17:13.609Z,1559.19
2023-05-20T05:18:13.496Z,1559.71
2023-05-20T05:19:13.315Z,1560.08
2023-05-20T05:20:13.164Z,1559.83
2023-05-20T05:21:13.277Z,1559.22
2023-05-20T05:22:13.470Z,1559.03
2023-05-20T05:23:13.427Z,1558.68
2023-05-20T05:24:13.179Z,1559.97
2023-05-20T05:25:12.978Z,1559.55
2023-05-20T05:26:12.990Z,1560.72
2023-05-20T05:27:12.764Z,1559.89
2023-05-20T05:28:13.588Z,1560.84
2023-05-20T05:29:13.745Z,1561.30
2023-05-20T05:30:13.602Z,1561.05
2023-05-20T05:31:13.409Z,1560.15
2023-05-20T05:32:14.405Z,1560.36
2023-05-20T05:33:13.308Z,1559.96
2023-05-20T05:34:13.417Z,1560.63
2023-05-20T05:35:13.282Z,1560.46
2023-05-20T05:36:13.213Z,1560.75
2023-05-20T05:37:13.036Z,1561.21
2023-05-20T05:38:12.843Z,1559.74
2023-05-20T05:39:13.818Z,1560.77
2023-05-20T05:40:13.850Z,1560.33
2023-05-20T05:41:13.561Z,1561.13
2023-05-20T05:42:13.424Z,1561.00
2023-05-20T05:43:13.204Z,1560.47
2023-05-20T05:44:13.103Z,1561.36
2023-05-20T05:45:13.010Z,1561.45
2023-05-20T05:46:13.038Z,1562.06
2023-05-20T05:47:13.111Z,1562.43
2023-05-20T05:48:12.944Z,1562.24
2023-05-20T05:49:12.812Z,1561.38
2023-05-20T05:50:13.544Z,1561.61
2023-05-20T05:51:13.361Z,1561.74
2023-05-20T05:52:13.398Z,1561.08
2023-05-20T05:53:13.310Z,1561.93
2023-05-20T05:54:13.129Z,1562.05
2023-05-20T05:55:13.072Z,1561.62
2023-05-20T05:56:13.215Z,1562.32
2023-05-20T05:57:13.020Z,1561.93
2023-05-20T05:58:12.805Z,1562.27
2023-05-20T05:59:13.543Z,1561.93
2023-05-20T06:00:13.444Z,1562.32
2023-05-20T06:01:13.379Z,1561.86
2023-05-20T06:02:13.195Z,1562.50
2023-05-20T06:03:13.116Z,1563.34
2023-05-20T06:04:13.242Z,1563.16
2023-05-20T06:05:13.218Z,1563.31
2023-05-20T06:06:13.021Z,1563.03
2023-05-20T06:07:13.269Z,1561.59
2023-05-20T06:08:13.036Z,1562.55
2023-05-20T06:09:12.836Z,1563.56
2023-05-20T06:10:13.684Z,1563.99
2023-05-20T06:11:13.586Z,1563.82
2023-05-20T06:12:14.181Z,1563.35
2023-05-20T06:13:13.154Z,1562.87
2023-05-20T06:14:18.100Z,1562.90
2023-05-20T06:15:13.157Z,1562.82
2023-05-20T06:16:12.915Z,1562.88
2023-05-20T06:17:13.920Z,1563.15
2023-05-20T06:18:12.702Z,1564.02
2023-05-20T06:19:13.741Z,1562.69
2023-05-20T06:20:14.007Z,1564.19
2023-05-20T06:21:18.017Z,1564.15
2023-05-20T06:22:12.801Z,1564.09
2023-05-20T06:23:13.624Z,1564.49
2023-05-20T06:24:13.706Z,1564.35
2023-05-20T06:25:13.606Z,1563.23
2023-05-20T06:26:13.396Z,1563.65
2023-05-20T06:27:13.277Z,1563.20
2023-05-20T06:28:13.093Z,1562.48
2023-05-20T06:29:12.834Z,1562.45
2023-05-20T06:30:13.870Z,1562.68
2023-05-20T06:31:13.686Z,1562.71
2023-05-20T06:32:13.564Z,1563.28
2023-05-20T06:33:13.978Z,1562.94
2023-05-20T06:34:13.134Z,1563.04
2023-05-20T06:35:13.242Z,1563.38
2023-05-20T06:36:13.030Z,1562.29
2023-05-20T06:37:12.916Z,1562.41
2023-05-20T06:38:12.837Z,1562.76
2023-05-20T06:39:13.906Z,1563.20
2023-05-20T06:40:12.808Z,1563.33
2023-05-20T06:41:13.813Z,1563.48
2023-05-20T06:42:13.739Z,1563.75
2023-05-20T06:43:13.686Z,1563.55
2023-05-20T06:44:13.541Z,1563.58
2023-05-20T06:45:13.441Z,1564.00
2023-05-20T06:46:13.233Z,1563.17
2023-05-20T06:47:13.104Z,1563.13
2023-05-20T06:48:13.060Z,1563.85
2023-05-20T06:49:12.868Z,1564.19
2023-05-20T06:50:15.886Z,1563.83
2023-05-20T06:51:12.727Z,1563.90
2023-05-20T06:52:13.539Z,1564.58
2023-05-20T06:53:13.378Z,1563.74
2023-05-20T06:54:13.285Z,1563.59
2023-05-20T06:55:13.426Z,1564.61
2023-05-20T06:56:13.299Z,1563.75
2023-05-20T06:57:13.329Z,1563.10
2023-05-20T06:58:13.201Z,1562.76
2023-05-20T06:59:12.944Z,1563.97
2023-05-20T07:00:12.945Z,1563.36
2023-05-20T07:01:13.062Z,1563.49
2023-05-20T07:02:12.913Z,1564.42
2023-05-20T07:03:12.866Z,1563.94
2023-05-20T07:04:12.904Z,1563.50
2023-05-20T07:05:12.997Z,1564.15
2023-05-20T07:06:12.781Z,1563.82
2023-05-20T07:07:14.962Z,1563.92
2023-05-20T07:08:13.777Z,1563.07
2023-05-20T07:09:13.601Z,1563.38
2023-05-20T07:10:13.407Z,1562.80
2023-05-20T07:11:13.336Z,1564.22
2023-05-20T07:12:13.167Z,1562.82
2023-05-20T07:13:13.281Z,1563.12
2023-05-20T07:14:13.100Z,1563.49
2023-05-20T07:15:13.026Z,1562.76
2023-05-20T07:16:13.255Z,1563.73
2023-05-20T07:17:13.167Z,1563.70
2023-05-20T07:18:13.168Z,1563.46
2023-05-20T07:19:13.495Z,1563.23
2023-05-20T07:20:13.406Z,1562.80
2023-05-20T07:21:13.185Z,1563.33
2023-05-20T07:22:13.120Z,1564.11
2023-05-20T07:23:14.494Z,1563.80
2023-05-20T07:24:13.833Z,1564.11
2023-05-20T07:25:13.732Z,1563.76
2023-05-20T07:26:13.531Z,1563.28
2023-05-20T07:27:13.408Z,1563.55
2023-05-20T07:28:13.462Z,1563.05
2023-05-20T07:29:13.272Z,1563.30
2023-05-20T07:30:13.235Z,1563.47
2023-05-20T07:31:13.341Z,1563.04
2023-05-20T07:32:13.234Z,1563.94
2023-05-20T07:33:13.359Z,1564.60
2023-05-20T07:34:13.491Z,1564.53
2023-05-20T07:35:13.360Z,1563.98
2023-05-20T07:36:13.332Z,1564.69
2023-05-20T07:37:13.148Z,1563.12
2023-05-20T07:38:13.180Z,1564.13
2023-05-20T07:39:15.074Z,1564.79
2023-05-20T07:40:13.210Z,1564.31
2023-05-20T07:41:13.304Z,1564.71
2023-05-20T07:42:13.258Z,1564.74
2023-05-20T07:43:13.290Z,1565.12
2023-05-20T07:44:13.153Z,1565.26
2023-05-20T07:45:13.024Z,1565.21
2023-05-20T07:46:13.049Z,1565.14
2023-05-20T07:47:13.040Z,1566.85
2023-05-20T07:48:13.152Z,1566.85
2023-05-20T07:49:13.213Z,1566.10
2023-05-20T07:50:13.134Z,1565.01
2023-05-20T07:51:12.963Z,1565.33
2023-05-20T07:52:12.811Z,1566.02
2023-05-20T07:53:13.609Z,1565.74
2023-05-20T07:54:13.421Z,1566.52
2023-05-20T07:55:13.392Z,1566.48
2023-05-20T07:56:13.285Z,1566.17
2023-05-20T07:57:13.373Z,1566.05
2023-05-20T07:58:13.257Z,1566.09
2023-05-20T07:59:13.118Z,1565.98
2023-05-20T08:00:13.009Z,1566.29
2023-05-20T08:01:13.137Z,1566.18
2023-05-20T08:02:13.086Z,1565.70
2023-05-20T08:03:13.033Z,1565.63
2023-05-20T08:04:13.121Z,1564.98
2023-05-20T08:05:13.039Z,1565.59
2023-05-20T08:06:13.085Z,1566.44
2023-05-20T08:07:12.882Z,1567.17
2023-05-20T08:08:13.947Z,1566.48
2023-05-20T08:09:12.962Z,1566.52
2023-05-20T08:10:12.891Z,1565.93
2023-05-20T08:11:12.721Z,1566.54
2023-05-20T08:12:13.562Z,1567.84
2023-05-20T08:13:13.631Z,1565.87
2023-05-20T08:14:13.696Z,1566.14
2023-05-20T08:15:13.663Z,1566.57
2023-05-20T08:16:13.576Z,1566.63
2023-05-20T08:17:13.696Z,1565.54
2023-05-20T08:18:13.870Z,1565.90
2023-05-20T08:19:12.775Z,1566.45
2023-05-20T08:20:13.475Z,1567.16
2023-05-20T08:21:13.187Z,1567.75
2023-05-20T08:22:13.116Z,1566.80
2023-05-20T08:23:12.833Z,1565.94
2023-05-20T08:24:13.871Z,1565.61
2023-05-20T08:25:13.666Z,1566.14
2023-05-20T08:26:13.640Z,1566.89
2023-05-20T08:27:13.522Z,1567.08
2023-05-20T08:28:13.242Z,1567.86
2023-05-20T08:29:13.066Z,1566.81
2023-05-20T08:30:13.346Z,1567.66
2023-05-20T08:31:13.594Z,1566.60
2023-05-20T08:32:13.702Z,1566.23
2023-05-20T08:33:13.517Z,1566.70
2023-05-20T08:34:13.418Z,1566.22
2023-05-20T08:35:13.218Z,1566.32
2023-05-20T08:36:12.936Z,1566.63
2023-05-20T08:37:12.944Z,1566.09
2023-05-20T08:38:12.872Z,1566.06
2023-05-20T08:39:14.132Z,1565.28
2023-05-20T08:40:12.988Z,1566.47
2023-05-20T08:41:13.144Z,1566.82
2023-05-20T08:42:13.029Z,1565.79
2023-05-20T08:43:13.157Z,1566.61
2023-05-20T08:44:13.142Z,1566.11
2023-05-20T08:45:13.127Z,1565.98
2023-05-20T08:46:13.267Z,1566.92
2023-05-20T08:47:13.394Z,1567.02
2023-05-20T08:48:13.389Z,1567.11
2023-05-20T08:49:13.791Z,1567.30
2023-05-20T08:50:13.852Z,1567.62
2023-05-20T08:51:13.571Z,1567.28
2023-05-20T08:52:13.841Z,1568.27
2023-05-20T08:53:14.505Z,1568.52
2023-05-20T08:54:13.525Z,1567.59
2023-05-20T08:55:13.348Z,1566.65
2023-05-20T08:56:13.414Z,1566.45
2023-05-20T08:57:13.813Z,1566.82
2023-05-20T08:58:14.044Z,1565.98
2023-05-20T08:59:12.917Z,1565.48
2023-05-20T09:00:12.729Z,1566.08
2023-05-20T09:01:13.811Z,1567.12
2023-05-20T09:02:13.670Z,1567.54
2023-05-20T09:03:13.597Z,1566.57
2023-05-20T09:04:13.850Z,1567.61
2023-05-20T09:05:13.888Z,1568.18
2023-05-20T09:06:13.176Z,1568.71
2023-05-20T09:07:13.140Z,1566.77
2023-05-20T09:08:14.241Z,1566.06
2023-05-20T09:09:13.134Z,1566.19
2023-05-20T09:10:13.061Z,1566.93
2023-05-20T09:11:12.895Z,1566.86
2023-05-20T09:12:12.782Z,1566.42
2023-05-20T09:13:13.639Z,1567.98
2023-05-20T09:14:13.501Z,1567.48
2023-05-20T09:15:13.463Z,1567.78
2023-05-20T09:16:13.379Z,1566.56
2023-05-20T09:17:13.384Z,1566.73
2023-05-20T09:18:13.169Z,1566.91
2023-05-20T09:19:14.215Z,1566.54
2023-05-20T09:20:13.071Z,1566.87
2023-05-20T09:21:13.020Z,1566.93
2023-05-20T09:22:12.815Z,1568.01
2023-05-20T09:23:13.637Z,1567.18
2023-05-20T09:24:13.768Z,1568.06
2023-05-20T09:25:13.525Z,1569.56
2023-05-20T09:26:13.511Z,1569.33
2023-05-20T09:27:13.656Z,1569.47
2023-05-20T09:28:13.456Z,1568.97
2023-05-20T09:29:13.283Z,1569.10
2023-05-20T09:30:13.625Z,1567.86
2023-05-20T09:31:13.684Z,1569.04
2023-05-20T09:32:13.518Z,1569.09
2023-05-20T09:33:13.648Z,1567.86
2023-05-20T09:34:13.823Z,1568.14
2023-05-20T09:35:14.003Z,1568.57
2023-05-20T09:36:14.590Z,1567.66
2023-05-20T09:37:12.781Z,1567.91
2023-05-20T09:38:13.795Z,1569.00
2023-05-20T09:39:14.049Z,1567.47
2023-05-20T09:40:12.943Z,1568.44
2023-05-20T09:41:12.981Z,1567.48
2023-05-20T09:42:12.792Z,1567.88
2023-05-20T09:43:13.855Z,1567.76
2023-05-20T09:44:27.154Z,1567.54
2023-05-20T09:45:12.965Z,1567.38
2023-05-20T09:46:13.047Z,1567.84
2023-05-20T09:47:14.098Z,1567.63
2023-05-20T09:48:12.948Z,1567.33
2023-05-20T09:49:12.885Z,1568.29
2023-05-20T09:50:12.785Z,1567.71
2023-05-20T09:51:13.966Z,1567.30
2023-05-20T09:52:12.734Z,1568.12
2023-05-20T09:53:13.603Z,1568.92
2023-05-20T09:54:13.417Z,1568.49
2023-05-20T09:55:18.264Z,1569.51
2023-05-20T09:56:13.105Z,1570.06
2023-05-20T09:57:13.124Z,1570.13
2023-05-20T09:58:14.801Z,1569.28
2023-05-20T09:59:13.313Z,1568.81
2023-05-20T10:00:27.704Z,1568.59
2023-05-20T10:01:13.729Z,1568.42
2023-05-20T10:02:13.817Z,1569.25
2023-05-20T10:03:18.081Z,1568.86
2023-05-20T10:04:13.566Z,1569.62
2023-05-20T10:05:13.949Z,1569.54
2023-05-20T10:06:13.092Z,1570.30
2023-05-20T10:07:13.302Z,1570.37
2023-05-20T10:08:13.255Z,1571.37
2023-05-20T10:09:29.441Z,1569.52
2023-05-20T10:10:13.574Z,1569.57
2023-05-20T10:11:13.709Z,1570.28
2023-05-20T10:12:13.585Z,1571.11
2023-05-20T10:14:14.725Z,1570.74
2023-05-20T10:15:13.731Z,1572.04
2023-05-20T10:16:32.217Z,1572.70
2023-05-20T10:17:25.222Z,1573.67
2023-05-20T10:18:20.277Z,1572.77
2023-05-20T10:19:13.516Z,1572.28
2023-05-20T10:20:13.559Z,1572.48
2023-05-20T10:21:23.477Z,1572.92
2023-05-20T10:23:13.016Z,1571.29
2023-05-20T10:24:28.067Z,1570.35
2023-05-20T10:25:12.955Z,1570.09
2023-05-20T10:26:19.060Z,1569.39
2023-05-20T10:27:12.840Z,1570.83
2023-05-20T10:28:13.603Z,1570.79
2023-05-20T10:29:13.644Z,1570.63
2023-05-20T10:30:13.758Z,1571.76
2023-05-20T10:31:18.735Z,1572.37
2023-05-20T10:32:14.195Z,1572.63
2023-05-20T10:33:13.208Z,1573.08
2023-05-20T10:34:13.254Z,1574.44
2023-05-20T10:35:13.092Z,1575.87
2023-05-20T10:36:13.001Z,1576.56
2023-05-20T10:37:12.773Z,1576.74
2023-05-20T10:38:13.575Z,1575.96
2023-05-20T10:39:13.381Z,1574.19
2023-05-20T10:40:13.460Z,1573.56
2023-05-20T10:41:13.708Z,1574.71
2023-05-20T10:42:13.583Z,1574.57
2023-05-20T10:43:13.426Z,1573.99
2023-05-20T10:44:13.318Z,1575.16
2023-05-20T10:45:13.397Z,1574.91
2023-05-20T10:47:25.229Z,1574.98
2023-05-20T10:48:13.077Z,1577.20
2023-05-20T10:49:28.159Z,1578.11
2023-05-20T10:50:13.264Z,1576.70
2023-05-20T10:51:13.221Z,1577.34
2023-05-20T10:52:28.281Z,1575.64
2023-05-20T10:53:21.699Z,1574.64
2023-05-20T10:54:13.541Z,1576.24
2023-05-20T10:55:13.407Z,1577.09
2023-05-20T10:56:13.365Z,1577.26
2023-05-20T10:57:13.233Z,1575.68
2023-05-20T10:58:23.433Z,1576.47
2023-05-20T10:59:13.481Z,1575.75
2023-05-20T11:00:13.318Z,1575.48
2023-05-20T11:01:13.316Z,1575.43
2023-05-20T11:02:13.275Z,1578.47
2023-05-20T11:03:13.354Z,1579.47
2023-05-20T11:04:13.517Z,1580.37
2023-05-20T11:05:21.117Z,1580.51
2023-05-20T11:06:23.382Z,1579.01
2023-05-20T11:07:48.804Z,1580.45
2023-05-20T11:08:24.597Z,1577.46
2023-05-20T11:09:13.344Z,1578.76
2023-05-20T11:10:13.237Z,1580.97
2023-05-20T11:11:13.870Z,1578.77
2023-05-20T11:12:13.033Z,1577.94
2023-05-20T11:13:13.090Z,1578.96
2023-05-20T11:14:13.123Z,1580.79
2023-05-20T11:15:12.928Z,1581.30
2023-05-20T11:16:13.008Z,1581.36
2023-05-20T11:17:13.005Z,1579.96
2023-05-20T11:18:12.878Z,1579.53
2023-05-20T11:19:14.265Z,1578.71
2023-05-20T11:20:13.722Z,1577.25
2023-05-20T11:21:13.673Z,1577.70
2023-05-20T11:22:13.526Z,1577.49
2023-05-20T11:23:13.285Z,1578.03
2023-05-20T11:24:13.258Z,1580.63
2023-05-20T11:25:13.163Z,1579.39
2023-05-20T11:26:13.754Z,1578.27
2023-05-20T11:27:13.573Z,1576.60
2023-05-20T11:28:13.653Z,1577.15
2023-05-20T11:29:13.771Z,1576.56
2023-05-20T11:30:18.563Z,1576.11
2023-05-20T11:31:13.665Z,1576.43
2023-05-20T11:32:18.713Z,1577.32
2023-05-20T11:33:14.078Z,1577.65
2023-05-20T11:34:13.397Z,1576.66
2023-05-20T11:35:18.587Z,1577.09
2023-05-20T11:36:26.890Z,1577.10
2023-05-20T11:37:13.470Z,1577.81
2023-05-20T11:38:13.427Z,1578.84
2023-05-20T11:39:13.638Z,1579.35
2023-05-20T11:40:13.637Z,1578.55
2023-05-20T11:41:13.407Z,1578.52
2023-05-20T11:42:13.440Z,1577.72
2023-05-20T11:43:13.341Z,1578.17
2023-05-20T11:44:14.655Z,1576.72
2023-05-20T11:45:13.557Z,1578.29
2023-05-20T11:46:13.539Z,1578.55
2023-05-20T11:47:13.521Z,1578.76
2023-05-20T11:48:13.465Z,1578.85
2023-05-20T11:49:13.732Z,1578.46
2023-05-20T11:50:13.717Z,1579.79
2023-05-20T11:51:13.729Z,1580.24
2023-05-20T11:52:13.532Z,1580.60
2023-05-20T11:53:13.452Z,1579.14
2023-05-20T11:54:13.327Z,1578.60
2023-05-20T11:55:13.176Z,1577.08
2023-05-20T11:56:12.930Z,1577.26
2023-05-20T11:57:12.672Z,1576.71
2023-05-20T11:58:13.372Z,1576.75
2023-05-20T11:59:13.468Z,1577.51
2023-05-20T12:00:13.342Z,1578.95
2023-05-20T12:01:21.624Z,1579.41
2023-05-20T12:02:15.912Z,1578.89
2023-05-20T12:03:13.023Z,1578.10
2023-05-20T12:04:13.051Z,1578.56
2023-05-20T12:05:13.183Z,1578.74
2023-05-20T12:06:13.210Z,1578.99
2023-05-20T12:07:13.120Z,1579.57
2023-05-20T12:08:13.005Z,1579.41